Flugplatz Meppe Airport

Bericht für ETWM

vom 23.01. um 16:20 UTC

Wind 3 kt aus 50°

Sichtweite 8000 m

Temperatur -3.0°C

Taupunkt -7.0°C

Luftfeuchtigkeit 74%

Luftdruck 1003 hPa

ETWM 231620Z AUTO 05003KT 8000 // ////// M03/M07 Q1003 ///
Keine Prognose (TAF) verfügbar.
Impressum